Racecast

Bronwyn Vaughan

Unattached (TX) · 8 · Compare head to head

Athlete rating 116.1 2026 TF season
Best race 135.5 TF
Races 41
Seasons 6 2021 — 2026

RankedNation #19519·TX #2065·Team #15 ?

Rating scale ?
Speed rating — all races

Cross Country

XC speed rating

2024 XC 102.4

Willow Springs (TX) · Grade 7

Date Meet Event Result Place Rating Difficulty PR/SR Flags
2024-09-16 Myers Park and Events Center 3000m 10:56 2nd · 1st on team 102.4 ★PR ★CR SR CSR RSR

2023 XC 120.4

ALT Performance Running (TX) · Grade 6

Date Meet Event Result Place Rating Difficulty PR/SR Flags
2023-12-02 Florida State University Rec SportsPlex 3000m 11:55.7 16th · 1st on team 119.4 +0.023 ★CR CSR
2023-11-18 EP Tom Sawyer State Park 3000m 11:21.7 6th · 1st on team 121.8 -0.001 PR ★CR SR CSR RSR
2023-09-16 Myers Park and Events Center 2414m 9:33.7 2nd · 1st on team 120.2 +0.038 ★PR ★CR SR CSR RSR
2023-09-09 The Buff 3218m 12:38.9 2nd · 1st on team 120.0 +0.011 ★PR ★CR SR CSR RSR

2022 XC 116.5

ALT Performance Running (TX) · Grade 11-12

Date Meet Event Result Place Rating Difficulty PR/SR Flags
2022-12-10 Watts Cross Country Course 3000m 12:11.1 128th · 1st on team 125.0 +0.003 PR ★CR SR CSR
2022-11-12 Athletic Performance Ranch 3000m 14:56.1 7th · 1st on team 113.4 +0.097 ★CR SR CSR
2022-10-22 Spring Creek Park 3200m 13:22.3 7th · 1st on team 125.8 +0.000 ★PR ★CR R SR CSR RSR
2022-10-08 The Buff 3218m 14:02.8 14th · 4th on team 119.7 +0.011 PR CR R SR CSR RSR
2022-10-01 Prestonwood Polo Club 3218m 14:15.7 22nd · 4th on team 116.7 +0.004 PR ★CR R SR CSR RSR
2022-09-17 Myers Park and Events Center 2253m 12:41.2 49th · 7th on team 107.8 +0.205 ★PR ★CR SR CSR
2022-09-10 Shadow Ridge Middle School 3218m 15:05.2 18th · 7th on team 111.8 +0.009 PR ★CR SR CSR
2022-08-20 Lakeview Camp 3218m 15:10.1 10th · 5th on team 112.0 +0.028 PR ★CR SR CSR RSR

2021 XC 108.8

Texas Action Track Club (TX) · Grade 4

Date Meet Event Result Place Rating Difficulty PR/SR Flags
2021-12-04 McAlpine Creek Park 3000m 13:35.3 70th · 3rd on team 115.4 +0.000 PR ★CR R SR CSR RSR
2021-11-06 The Buff 2500m 11:31 13th · 4th on team 107.6 -0.034 ★PR ★CR SR CSR
2021-10-30 Saint Andrew Catholic School 2414m 11:30 1st · 1st on team 103.1 -0.047 PR ★CR SR CSR
2021-10-09 The Buff 3218m 15:18.7 22nd · 4th on team 113.5 +0.011 PR CR R SR CSR RSR
2021-10-02 Central Park 2414m 12:51.2 4th · 1st on team 105.1 +0.086 PR ★CR SR CSR
2021-09-18 The Buff 1600m 7:02.5 21st · 2nd on team 108.4 -0.029 ★PR ★CR R SR CSR RSR

Track & Field

TF speed rating

2026 TF 110.3

Unattached (TX) · Grade 8

Date Meet Event Result Place Rating Difficulty PR/SR Flags
2026-03-20 SL Carroll Texas Distance Festival TF26 3200m 12:15.85 88th · 88th on team 116.1 -0.037 ★PR SR
2026-03-20 SL Carroll Texas Distance Festival TF26 1600m 5:49.67 219th · 219th on team 113.5 -0.037 ★PR SR
2026-03-12 Lovejoy Middle School Meet 2400m 8:50.77 1st · 1st on team 117.8 -0.033 ★PR SR RSR
2026-03-12 Lovejoy Middle School Meet 1600m 5:52.2 2nd · 1st on team 113.1 -0.033
2026-03-05 2026 Quad-Meet at Rock Hill HS 1600m 5:52.1 1st · 1st on team 114.0 -0.026 PR SR RSR
2026-03-05 2026 Quad-Meet at Rock Hill HS 2400m 12:00 1st · 1st on team 87.5 -0.026 PR SR

2025 TF 114.9

ALT Performance Running (TX) · Grade 6

Date Meet Event Result Place Rating Difficulty PR/SR Flags
2024-08-03 AAU Junior Olympic Games 3000m 11:28.49 13th · 1st on team 114.9 -0.039 SR RSR

2024 TF 113.5

ALT Performance Running (TX) · Grade 6

Date Meet Event Result Place Rating Difficulty PR/SR Flags
2024-06-30 AAU Region 18 Qualifier 800m 2:36.96 6th · 2nd on team 116.0 -0.030 SR
2024-06-30 AAU Region 18 Qualifier 3000m 11:19.76 1st · 1st on team 117.3 -0.030
2024-06-30 AAU Region 18 Qualifier 1500m 5:14.47 3rd · 2nd on team 118.0 -0.030 SR
2024-06-09 AAU Southwestern District Qualifier 1500m 5:53.4 6th · 3rd on team 105.5 -0.030
2024-06-09 AAU Southwestern District Qualifier 3000m 11:39.2 1st · 1st on team 114.8 -0.030
2024-06-09 AAU Southwestern District Qualifier 800m 2:48.48 7th · 3rd on team 108.4 -0.030 SR
2024-05-05 Clash of Texas 3000m 10:54.3 1st · 1st on team 122.0 -0.029 ★PR SR RSR
2024-05-05 Clash of Texas 1500m 5:20.57 12th · 2nd on team 115.9 -0.029 SR
2024-05-05 Clash of Texas 800m 2:50.6 26th · 3rd on team 106.8 -0.029 SR
2024-03-16 Texas Distance Festival 1600m 5:59.36 221st · 221st on team 110.4 -0.037 PR SR RSR

2023 TF 132.2

ALT Performance Running (TX) · Grade 5

Date Meet Event Result Place Rating Difficulty PR/SR Flags
2023-05-20 Track Dynamite Invitational 800m 2:36.58 2nd · 2nd on team 134.6 -0.026 ★PR R SR RSR
2023-05-20 Track Dynamite Invitational 1500m 5:10.35 1st · 1st on team 135.5 -0.026 ★PR ★R SR RSR
2023-05-07 Clash of Texas 3000m 11:23.11 2nd · 1st on team 131.1 -0.024 PR R SR RSR
2023-05-07 Clash of Texas 1500m 5:15.55 2nd · 1st on team 133.7 -0.024 PR R SR RSR
2023-05-07 Clash of Texas 800m 2:47.48 9th · 1st on team 126.2 -0.024 PR SR